Time;durP1;ratioP1;P1;durP2;ratioP2;P2;SDS_P1;SDS_P2;PMS_P1;PMS_P2;Temp;Humidity;BMP_temperature;BMP_pressure;BME280_temperature;BME280_humidity;BME280_pressure;Samples;Min_cycle;Max_cycle;Signal;HPM_P1;HPM_P2
2024/04/09 00:02:20;;;;;;;7.53;5.20;;;19.20;99.90;;;;;;5527636;25;20491;-70
2024/04/09 00:04:45;;;;;;;9.20;5.07;;;19.20;99.90;;;;;;5527730;25;20247;-70
2024/04/09 00:07:13;;;;;;;11.17;5.10;;;19.20;99.90;;;;;;5527708;25;20970;-70
2024/04/09 00:09:42;;;;;;;9.07;5.40;;;19.10;99.90;;;;;;5527666;25;20213;-70
2024/04/09 00:12:11;;;;;;;5.90;4.93;;;19.00;99.90;;;;;;5527465;25;20438;-70
2024/04/09 00:14:47;;;;;;;6.17;4.80;;;19.00;99.90;;;;;;5527541;25;20442;-70
2024/04/09 00:17:18;;;;;;;5.57;4.93;;;18.90;99.90;;;;;;5527570;25;20449;-70
2024/04/09 00:19:47;;;;;;;9.00;4.97;;;18.90;99.90;;;;;;5527540;25;20446;-70
2024/04/09 00:22:15;;;;;;;6.20;5.33;;;18.90;99.90;;;;;;5527567;25;20489;-70
2024/04/09 00:24:43;;;;;;;6.33;4.70;;;18.90;99.90;;;;;;5527436;25;20494;-70
2024/04/09 00:27:09;;;;;;;5.23;4.67;;;18.90;99.90;;;;;;5527463;25;20449;-70
2024/04/09 00:29:39;;;;;;;5.27;4.77;;;18.90;99.90;;;;;;5527356;25;20828;-70
2024/04/09 00:32:07;;;;;;;4.63;4.27;;;18.90;99.90;;;;;;5527284;25;20205;-70
2024/04/09 00:34:35;;;;;;;7.70;5.30;;;18.80;99.90;;;;;;5527411;25;20501;-70
2024/04/09 00:37:00;;;;;;;13.20;5.40;;;18.80;99.90;;;;;;5527193;25;20450;-70
2024/04/09 00:39:33;;;;;;;6.70;5.97;;;18.80;99.90;;;;;;5527337;25;20449;-70
2024/04/09 00:41:59;;;;;;;5.33;4.67;;;18.80;99.90;;;;;;5527322;25;20205;-70
2024/04/09 00:44:31;;;;;;;6.77;5.10;;;18.80;99.90;;;;;;5527152;25;20963;-70
2024/04/09 00:46:56;;;;;;;11.77;5.07;;;18.70;99.90;;;;;;5527199;25;20956;-70
2024/04/09 00:49:28;;;;;;;9.43;5.43;;;18.70;99.90;;;;;;5527084;25;20509;-70
2024/04/09 00:51:53;;;;;;;9.97;5.57;;;18.70;99.90;;;;;;5527281;25;20243;-70
2024/04/09 00:54:22;;;;;;;6.37;4.63;;;18.70;99.90;;;;;;5527096;25;20473;-70
2024/04/09 00:56:49;;;;;;;8.33;5.87;;;18.70;99.90;;;;;;5526945;25;20205;-70
2024/04/09 00:59:18;;;;;;;9.53;5.40;;;18.70;99.90;;;;;;5527286;25;20822;-70
2024/04/09 01:01:46;;;;;;;10.07;6.60;;;18.60;99.90;;;;;;5526940;25;20442;-70
2024/04/09 01:04:14;;;;;;;5.70;5.20;;;18.50;99.90;;;;;;5526943;25;20872;-70
2024/04/09 01:06:43;;;;;;;6.03;4.90;;;18.50;99.90;;;;;;5526806;25;20604;-70
2024/04/09 01:09:11;;;;;;;9.43;5.40;;;18.50;99.90;;;;;;5526781;25;20505;-70
2024/04/09 01:11:36;;;;;;;8.27;4.83;;;18.50;99.90;;;;;;5526780;25;20711;-70
2024/04/09 01:14:05;;;;;;;8.83;6.07;;;18.50;99.90;;;;;;5526577;25;20442;-70
2024/04/09 01:16:30;;;;;;;7.00;5.13;;;18.50;99.90;;;;;;5526498;25;20213;-70
2024/04/09 01:18:58;;;;;;;5.63;5.07;;;18.50;99.90;;;;;;5526673;25;20494;-70
2024/04/09 01:21:24;;;;;;;6.30;5.27;;;18.50;99.90;;;;;;5526601;25;20208;-70
2024/04/09 01:23:55;;;;;;;9.77;5.80;;;18.50;99.90;;;;;;5525535;25;21000;-70
2024/04/09 01:26:20;;;;;;;5.37;4.87;;;18.50;99.90;;;;;;5526635;25;20213;-70
2024/04/09 01:28:48;;;;;;;11.40;6.00;;;18.40;99.90;;;;;;5526413;25;21078;-70
2024/04/09 01:31:15;;;;;;;7.43;5.00;;;18.40;99.90;;;;;;5526551;25;20213;-70
2024/04/09 01:33:45;;;;;;;8.37;5.00;;;18.30;99.90;;;;;;5526526;25;20500;-70
2024/04/09 01:36:11;;;;;;;9.33;4.90;;;18.30;99.90;;;;;;5526418;25;20563;-70
2024/04/09 01:38:39;;;;;;;7.73;5.60;;;18.30;99.90;;;;;;5526329;25;20453;-70
2024/04/09 01:41:08;;;;;;;6.87;5.03;;;18.20;99.90;;;;;;5526320;25;20212;-69
2024/04/09 01:43:36;;;;;;;7.90;5.17;;;18.20;99.90;;;;;;5526288;25;20769;-70
2024/04/09 01:46:02;;;;;;;6.13;5.43;;;18.20;99.90;;;;;;5526192;25;20491;-70
2024/04/09 01:48:32;;;;;;;16.00;6.50;;;18.20;99.90;;;;;;5526185;25;20562;-70
2024/04/09 01:50:57;;;;;;;6.40;5.80;;;18.10;99.90;;;;;;5526334;25;20461;-70
2024/04/09 01:53:25;;;;;;;7.90;5.23;;;18.10;99.90;;;;;;5526104;25;20584;-70
2024/04/09 01:55:58;;;;;;;5.73;5.07;;;18.00;99.90;;;;;;5525943;25;20703;-70
2024/04/09 01:58:30;;;;;;;9.47;5.70;;;18.00;99.90;;;;;;5525934;25;20446;-70
2024/04/09 02:00:56;;;;;;;9.87;6.10;;;18.00;99.90;;;;;;5525913;25;20550;-70
2024/04/09 02:03:24;;;;;;;7.17;6.00;;;17.80;99.90;;;;;;5525934;25;20449;-70
2024/04/09 02:05:51;;;;;;;6.43;5.17;;;17.70;99.90;;;;;;5525900;25;20209;-70
2024/04/09 02:08:19;;;;;;;9.13;5.33;;;17.70;99.90;;;;;;5525788;25;20842;-70
2024/04/09 02:10:45;;;;;;;6.50;5.10;;;17.70;99.90;;;;;;5525864;25;20445;-70
2024/04/09 02:13:15;;;;;;;13.43;5.63;;;17.70;99.90;;;;;;5525919;25;20505;-70
2024/04/09 02:15:43;;;;;;;7.90;5.50;;;17.70;99.90;;;;;;5525600;25;20205;-70
2024/04/09 02:18:12;;;;;;;6.87;6.23;;;17.70;99.90;;;;;;5525576;25;20457;-70
2024/04/09 02:20:38;;;;;;;12.00;6.10;;;17.60;99.90;;;;;;5525590;25;20445;-70
2024/04/09 02:23:08;;;;;;;7.50;6.00;;;17.60;99.90;;;;;;5525549;25;21032;-70
2024/04/09 02:25:33;;;;;;;5.97;5.47;;;17.40;99.90;;;;;;5525501;25;20494;-70
2024/04/09 02:28:02;;;;;;;13.90;6.73;;;17.40;99.90;;;;;;5525471;25;20449;-70
2024/04/09 02:30:28;;;;;;;6.73;6.10;;;17.40;99.90;;;;;;5525688;25;20248;-70
2024/04/09 02:32:59;;;;;;;7.00;6.30;;;17.40;99.90;;;;;;5525758;25;20453;-70
2024/04/09 02:35:28;;;;;;;6.07;5.47;;;17.40;99.90;;;;;;5525556;25;20449;-70
2024/04/09 02:37:54;;;;;;;7.03;5.60;;;17.50;99.90;;;;;;5528986;25;20501;-70
2024/04/09 02:40:22;;;;;;;8.53;5.60;;;17.50;99.90;;;;;;5529334;25;20878;-70
2024/04/09 02:42:49;;;;;;;5.50;5.00;;;17.50;99.90;;;;;;5528993;25;20209;-70
2024/04/09 02:45:20;;;;;;;9.67;6.20;;;17.50;99.90;;;;;;5528986;25;20445;-70
2024/04/09 02:47:45;;;;;;;6.43;5.83;;;17.40;99.90;;;;;;5529243;25;20501;-70
2024/04/09 02:50:16;;;;;;;8.63;6.07;;;17.40;99.90;;;;;;5528873;25;20781;-69
2024/04/09 02:52:42;;;;;;;6.00;5.50;;;17.40;99.90;;;;;;5528816;25;20221;-70
2024/04/09 02:55:10;;;;;;;6.40;5.80;;;17.30;99.90;;;;;;5528781;25;21065;-70
2024/04/09 02:57:36;;;;;;;8.37;7.60;;;17.30;99.90;;;;;;5528621;25;20256;-70
2024/04/09 03:00:15;;;;;;;6.47;5.83;;;17.30;99.90;;;;;;5528715;25;20562;-70
2024/04/09 03:02:40;;;;;;;7.57;6.80;;;17.30;99.90;;;;;;5528814;25;20277;-70
2024/04/09 03:05:09;;;;;;;8.27;6.13;;;17.20;99.90;;;;;;5528632;25;20457;-70
2024/04/09 03:07:37;;;;;;;9.27;5.63;;;17.20;99.90;;;;;;5528666;25;20625;-70
2024/04/09 03:10:05;;;;;;;7.60;5.50;;;17.20;99.90;;;;;;5528488;25;20457;-70
2024/04/09 03:12:34;;;;;;;7.07;6.37;;;17.20;99.90;;;;;;5528700;25;20814;-70
2024/04/09 03:15:03;;;;;;;7.10;6.33;;;17.20;99.90;;;;;;5528523;25;20448;-70
2024/04/09 03:17:28;;;;;;;7.10;5.57;;;17.20;99.90;;;;;;5528419;25;20446;-70
2024/04/09 03:19:56;;;;;;;6.20;5.60;;;17.20;99.90;;;;;;5528461;25;21012;-70
2024/04/09 03:22:22;;;;;;;6.30;5.80;;;17.20;99.90;;;;;;5528423;25;20316;-70
2024/04/09 03:24:53;;;;;;;6.20;5.60;;;17.20;99.90;;;;;;5528277;25;20453;-70
2024/04/09 03:27:18;;;;;;;9.83;5.63;;;17.20;99.90;;;;;;5528340;25;20239;-70
2024/04/09 03:29:50;;;;;;;8.50;6.20;;;17.20;99.90;;;;;;5528194;25;20449;-70
2024/04/09 03:32:15;;;;;;;6.87;6.27;;;17.10;99.90;;;;;;5528259;25;20212;-70
2024/04/09 03:34:43;;;;;;;8.17;6.43;;;17.00;99.90;;;;;;5528090;25;20445;-70
2024/04/09 03:37:09;;;;;;;5.70;5.23;;;17.00;99.90;;;;;;5528089;25;20711;-70
2024/04/09 03:39:37;;;;;;;7.10;5.77;;;17.00;99.90;;;;;;5528192;25;20457;-70
2024/04/09 03:42:08;;;;;;;7.07;5.80;;;17.00;99.90;;;;;;5528074;25;20239;-70
2024/04/09 03:44:37;;;;;;;9.37;5.77;;;17.10;99.90;;;;;;5528075;25;20940;-70
2024/04/09 03:47:04;;;;;;;8.83;6.27;;;17.10;99.90;;;;;;5527470;25;20448;-70
2024/04/09 03:49:32;;;;;;;13.77;6.20;;;17.00;99.90;;;;;;5528046;25;20452;-69
2024/04/09 03:51:57;;;;;;;7.77;5.97;;;16.90;99.90;;;;;;5527971;25;20457;-70
2024/04/09 03:54:25;;;;;;;6.60;5.53;;;16.70;99.90;;;;;;5527932;25;20510;-70
2024/04/09 03:56:51;;;;;;;11.30;6.70;;;16.70;99.90;;;;;;5527779;25;20252;-69
2024/04/09 03:59:22;;;;;;;9.00;6.20;;;16.70;99.90;;;;;;5527853;25;20441;-70
2024/04/09 04:01:47;;;;;;;6.67;6.10;;;16.50;99.90;;;;;;5527804;25;20253;-69
2024/04/09 04:04:17;;;;;;;7.23;6.17;;;16.50;99.90;;;;;;5527974;25;20792;-69
2024/04/09 04:06:43;;;;;;;6.70;6.10;;;16.50;99.90;;;;;;5527698;25;20311;-69
2024/04/09 04:09:11;;;;;;;8.40;6.40;;;16.40;99.90;;;;;;5527488;25;20461;-69
2024/04/09 04:11:37;;;;;;;7.73;6.00;;;16.30;99.90;;;;;;5527662;25;20560;-69
2024/04/09 04:14:05;;;;;;;9.00;6.63;;;16.40;99.90;;;;;;5527588;25;20450;-69
2024/04/09 04:16:33;;;;;;;10.93;7.60;;;16.40;99.90;;;;;;5527499;25;20228;-69
2024/04/09 04:19:01;;;;;;;10.03;6.23;;;16.30;99.90;;;;;;5527405;25;20792;-69
2024/04/09 04:21:27;;;;;;;10.87;6.70;;;16.40;99.90;;;;;;5527465;25;20492;-70
2024/04/09 04:23:56;;;;;;;10.53;7.17;;;16.40;99.90;;;;;;5527495;25;20541;-70
2024/04/09 04:26:23;;;;;;;6.80;6.20;;;16.40;99.90;;;;;;5527343;25;20209;-70
2024/04/09 04:28:53;;;;;;;13.03;6.73;;;16.40;99.90;;;;;;5527180;25;20490;-70
2024/04/09 04:31:19;;;;;;;6.80;6.20;;;16.40;99.90;;;;;;5527260;25;20968;-70
2024/04/09 04:33:52;;;;;;;10.03;6.90;;;16.50;99.90;;;;;;5527635;25;20438;-70
2024/04/09 04:36:19;;;;;;;10.60;6.17;;;16.50;99.90;;;;;;5527219;25;20481;-70
2024/04/09 04:38:48;;;;;;;7.23;6.37;;;16.60;99.90;;;;;;5527316;25;20893;-70
2024/04/09 04:41:14;;;;;;;6.97;6.47;;;16.60;99.90;;;;;;5527245;25;20486;-70
2024/04/09 04:43:43;;;;;;;12.60;7.20;;;16.50;99.90;;;;;;5527091;25;20449;-70
2024/04/09 04:46:09;;;;;;;10.20;7.03;;;16.60;99.90;;;;;;5527187;25;20452;-70
2024/04/09 04:48:37;;;;;;;10.80;6.53;;;16.70;99.90;;;;;;5527076;25;20457;-70
2024/04/09 04:51:06;;;;;;;8.17;6.40;;;16.70;99.90;;;;;;5526761;25;20255;-70
2024/04/09 04:53:34;;;;;;;8.30;6.87;;;16.80;99.90;;;;;;5526887;25;20574;-70
2024/04/09 04:56:00;;;;;;;11.53;6.90;;;16.70;99.90;;;;;;5526616;25;20433;-69
2024/04/09 04:58:28;;;;;;;8.07;7.00;;;16.80;99.90;;;;;;5525787;25;20467;-70
2024/04/09 05:00:54;;;;;;;9.10;6.77;;;16.70;99.90;;;;;;5526923;25;20240;-69
2024/04/09 05:03:22;;;;;;;13.17;6.93;;;16.70;99.90;;;;;;5526835;25;20964;-69
2024/04/09 05:05:48;;;;;;;11.27;6.43;;;16.60;99.90;;;;;;5526856;25;20606;-69
2024/04/09 05:08:19;;;;;;;9.47;6.70;;;16.80;99.90;;;;;;5526617;25;20450;-69
2024/04/09 05:10:45;;;;;;;16.77;7.43;;;16.80;99.90;;;;;;5526589;25;20486;-69
2024/04/09 05:13:13;;;;;;;8.53;6.70;;;16.90;99.90;;;;;;5526413;25;20446;-70
2024/04/09 05:15:38;;;;;;;8.60;6.50;;;16.90;99.90;;;;;;5526443;25;20730;-70
2024/04/09 05:18:08;;;;;;;8.00;6.57;;;16.90;99.90;;;;;;5526562;25;20460;-70
2024/04/09 05:20:39;;;;;;;10.37;6.23;;;16.90;99.90;;;;;;5526674;25;20220;-69
2024/04/09 05:23:05;;;;;;;11.37;7.40;;;17.00;99.90;;;;;;5526559;25;20449;-70
2024/04/09 05:25:36;;;;;;;7.17;6.40;;;17.10;99.90;;;;;;5526525;25;20446;-70
2024/04/09 05:28:02;;;;;;;7.53;6.90;;;17.10;99.90;;;;;;5526562;25;20204;-69
2024/04/09 05:30:31;;;;;;;10.53;6.53;;;17.20;99.90;;;;;;5526102;25;20497;-69
2024/04/09 05:32:57;;;;;;;11.93;5.93;;;17.30;99.90;;;;;;5526831;25;20490;-70
2024/04/09 05:35:25;;;;;;;7.43;6.37;;;17.40;99.90;;;;;;5526062;25;20446;-69
2024/04/09 05:37:51;;;;;;;16.37;6.70;;;17.50;99.90;;;;;;5526086;25;20220;-69
2024/04/09 05:40:19;;;;;;;11.47;6.30;;;17.50;99.90;;;;;;5526094;25;20446;-70
2024/04/09 05:42:48;;;;;;;11.50;7.00;;;17.60;99.90;;;;;;5526049;25;20204;-70
2024/04/09 05:45:18;;;;;;;11.40;6.40;;;17.60;99.90;;;;;;5526243;25;20578;-69
2024/04/09 05:47:43;;;;;;;8.20;6.83;;;17.70;99.90;;;;;;5525905;25;20438;-69
2024/04/09 05:50:11;;;;;;;9.33;8.30;;;17.80;99.90;;;;;;5525908;25;20445;-69
2024/04/09 05:52:37;;;;;;;8.40;7.37;;;17.90;99.90;;;;;;5525791;25;20243;-69
2024/04/09 05:55:07;;;;;;;10.47;6.30;;;18.00;99.90;;;;;;5526003;25;20820;-69
2024/04/09 05:57:36;;;;;;;7.30;6.33;;;18.20;99.90;;;;;;5525529;25;20272;-70
2024/04/09 06:00:10;;;;;;;7.90;6.77;;;18.30;99.90;;;;;;5525665;25;20505;-70
2024/04/09 06:02:36;;;;;;;14.77;7.27;;;18.50;99.90;;;;;;5525611;25;20445;-70
2024/04/09 06:05:05;;;;;;;13.00;7.70;;;18.50;99.90;;;;;;5525624;25;20559;-69
2024/04/09 06:07:30;;;;;;;10.93;6.93;;;18.60;99.90;;;;;;5525640;25;20457;-70
2024/04/09 06:09:58;;;;;;;8.80;6.00;;;18.80;99.90;;;;;;5526691;25;20483;-70
2024/04/09 06:12:24;;;;;;;8.90;7.47;;;18.90;99.90;;;;;;5529259;25;20719;-70
2024/04/09 06:14:54;;;;;;;6.90;6.40;;;19.10;99.90;;;;;;5529096;25;20441;-70
2024/04/09 06:17:22;;;;;;;6.73;6.03;;;19.20;99.90;;;;;;5529068;25;20243;-70
2024/04/09 06:19:53;;;;;;;9.77;6.30;;;19.20;99.90;;;;;;5529158;25;20571;-69
2024/04/09 06:22:19;;;;;;;8.07;5.70;;;19.30;99.90;;;;;;5529181;25;21024;-70
2024/04/09 06:24:49;;;;;;;16.53;5.97;;;19.30;99.90;;;;;;5529246;25;20513;-70
2024/04/09 06:27:14;;;;;;;6.93;6.00;;;19.40;99.90;;;;;;5528694;25;20217;-70
2024/04/09 06:29:43;;;;;;;10.47;5.93;;;19.50;99.90;;;;;;5528977;25;21048;-69
2024/04/09 06:32:08;;;;;;;5.90;5.40;;;19.60;99.90;;;;;;5531617;25;20228;-69
2024/04/09 06:34:39;;;;;;;5.03;4.67;;;19.70;99.90;;;;;;5539566;25;21037;-70
2024/04/09 06:37:05;;;;;;;7.00;5.60;;;19.70;99.90;;;;;;5527465;26;20252;-70
2024/04/09 06:39:33;;;;;;;5.40;4.80;;;19.80;99.90;;;;;;5526147;25;20550;-70
2024/04/09 06:42:02;;;;;;;6.93;4.97;;;19.70;99.90;;;;;;5527489;26;20243;-70
2024/04/09 06:44:30;;;;;;;5.60;5.20;;;19.70;99.90;;;;;;5526976;26;21001;-70
2024/04/09 06:46:56;;;;;;;6.47;4.43;;;19.80;99.90;;;;;;5525861;25;20557;-70
2024/04/09 06:49:24;;;;;;;5.80;5.30;;;19.80;99.90;;;;;;5528715;25;20450;-70
2024/04/09 06:51:52;;;;;;;5.53;5.10;;;19.90;99.90;;;;;;5528493;26;20239;-70
2024/04/09 06:54:20;;;;;;;4.93;4.53;;;19.90;99.90;;;;;;5528754;26;20501;-70
2024/04/09 06:56:46;;;;;;;4.93;4.53;;;20.10;99.90;;;;;;5528492;26;21013;-69
2024/04/09 06:59:14;;;;;;;5.63;4.70;;;20.20;99.90;;;;;;5527680;25;20473;-69
2024/04/09 07:01:39;;;;;;;5.43;4.90;;;20.30;99.90;;;;;;5539112;25;20221;-69
2024/04/09 07:04:07;;;;;;;5.60;5.03;;;20.30;99.90;;;;;;5538462;25;21051;-71
2024/04/09 07:06:33;;;;;;;7.00;4.60;;;20.50;99.90;;;;;;5543440;25;20576;-70
2024/04/09 07:09:16;;;;;;;4.83;4.13;;;20.60;99.90;;;;;;5543331;25;20460;-72
2024/04/09 07:11:45;;;;;;;6.13;5.10;;;20.80;99.90;;;;;;5541649;25;20283;-64
2024/04/09 07:14:13;;;;;;;6.93;5.10;;;20.90;99.90;;;;;;5536484;25;20984;-63
2024/04/09 07:16:39;;;;;;;4.30;4.00;;;21.00;99.90;;;;;;5528216;25;20437;-67
2024/04/09 07:19:12;;;;;;;5.13;4.03;;;21.10;99.90;;;;;;5528408;25;20493;-66
2024/04/09 07:21:39;;;;;;;4.47;4.13;;;21.20;99.90;;;;;;5527263;25;21024;-68
2024/04/09 07:24:15;;;;;;;8.80;6.30;;;21.40;99.90;;;;;;5528263;25;20442;-67
2024/04/09 07:26:41;;;;;;;4.03;3.70;;;21.50;99.90;;;;;;5528463;25;20461;-64
2024/04/09 07:29:10;;;;;;;4.70;4.30;;;21.60;99.90;;;;;;5527911;25;20457;-70
2024/04/09 07:31:41;;;;;;;4.73;4.10;;;21.60;99.90;;;;;;5528085;25;20213;-66
2024/04/09 07:34:07;;;;;;;4.30;4.07;;;21.70;99.90;;;;;;5528061;25;20956;-69
2024/04/09 07:36:37;;;;;;;4.10;3.60;;;21.80;99.90;;;;;;5528061;25;20530;-71
2024/04/09 07:39:03;;;;;;;4.37;3.97;;;21.90;99.90;;;;;;5528065;25;20252;-71
2024/04/09 07:41:34;;;;;;;6.10;4.07;;;22.00;99.90;;;;;;5527866;25;20449;-68
2024/04/09 07:43:59;;;;;;;4.03;3.73;;;22.20;99.90;;;;;;5527984;25;20826;-70
2024/04/09 07:46:27;;;;;;;4.13;3.63;;;22.30;99.90;;;;;;5527835;25;20453;-67
2024/04/09 07:48:55;;;;;;;6.00;3.70;;;22.40;99.90;;;;;;5527845;25;20311;-66
2024/04/09 07:51:23;;;;;;;4.93;3.60;;;22.40;99.90;;;;;;5527870;25;20558;-71
2024/04/09 07:53:48;;;;;;;3.90;3.37;;;22.40;99.90;;;;;;5527485;25;20465;-69
2024/04/09 07:56:17;;;;;;;5.40;3.57;;;22.50;99.90;;;;;;5527601;25;20493;-68
2024/04/09 07:58:45;;;;;;;3.20;3.00;;;22.40;99.90;;;;;;5527666;25;20217;-66
2024/04/09 08:01:13;;;;;;;7.03;3.90;;;22.20;99.90;;;;;;5527627;25;20525;-62
2024/04/09 08:03:39;;;;;;;5.93;3.60;;;22.00;99.90;;;;;;5527502;25;20453;-67
2024/04/09 08:06:07;;;;;;;4.60;3.87;;;22.00;99.90;;;;;;5527660;25;20509;-64
2024/04/09 08:08:32;;;;;;;8.13;3.60;;;22.10;99.90;;;;;;5527710;25;20232;-68
2024/04/09 08:11:03;;;;;;;6.00;3.40;;;22.10;99.90;;;;;;5527382;25;20454;-65
2024/04/09 08:13:28;;;;;;;10.63;4.03;;;22.10;99.90;;;;;;5527388;25;20244;-63
2024/04/09 08:15:59;;;;;;;3.90;3.50;;;22.10;99.90;;;;;;5527091;25;20956;-65
2024/04/09 08:18:25;;;;;;;3.27;3.07;;;22.20;99.90;;;;;;5527364;25;20213;-64
2024/04/09 08:20:54;;;;;;;3.23;2.90;;;22.20;99.90;;;;;;5527313;25;20818;-63
2024/04/09 08:23:20;;;;;;;4.73;3.77;;;22.40;99.90;;;;;;5527314;25;20442;-68
2024/04/09 08:25:49;;;;;;;5.10;3.60;;;22.60;99.90;;;;;;5527151;25;20445;-69
2024/04/09 08:28:14;;;;;;;3.80;3.50;;;22.80;99.90;;;;;;5527328;25;20213;-64
2024/04/09 08:30:43;;;;;;;3.90;3.37;;;22.90;99.90;;;;;;5527083;25;20442;-66
2024/04/09 08:33:12;;;;;;;9.50;3.53;;;23.00;99.90;;;;;;5527049;25;20208;-64
2024/04/09 08:35:44;;;;;;;3.03;2.70;;;23.10;99.90;;;;;;5527043;25;20941;-65
2024/04/09 08:38:10;;;;;;;2.80;2.60;;;23.20;99.90;;;;;;5527079;25;20975;-64
2024/04/09 08:40:38;;;;;;;3.17;2.90;;;23.30;99.90;;;;;;5527121;25;20497;-65
2024/04/09 08:43:03;;;;;;;3.67;3.00;;;23.50;99.90;;;;;;5526965;25;20217;-66
2024/04/09 08:45:32;;;;;;;2.77;2.57;;;23.70;99.90;;;;;;5526817;25;21027;-68
2024/04/09 08:48:00;;;;;;;3.00;2.80;;;23.80;99.90;;;;;;5526983;25;20209;-65
2024/04/09 08:50:30;;;;;;;6.33;4.10;;;23.80;99.90;;;;;;5527018;25;20540;-69
2024/04/09 08:52:57;;;;;;;3.03;2.63;;;23.80;99.90;;;;;;5526848;25;20470;-67
2024/04/09 08:55:26;;;;;;;4.00;2.30;;;23.90;99.90;;;;;;5526781;25;20438;-67
2024/04/09 08:57:52;;;;;;;3.47;2.93;;;24.00;99.90;;;;;;5526770;25;20445;-66
2024/04/09 09:00:20;;;;;;;3.43;2.60;;;24.20;99.90;;;;;;5525760;25;20450;-67
2024/04/09 09:02:46;;;;;;;4.27;2.87;;;24.40;99.90;;;;;;5526540;25;20572;-72
2024/04/09 09:05:18;;;;;;;5.53;3.27;;;24.60;99.90;;;;;;5526939;25;20449;-69
2024/04/09 09:07:57;;;;;;;6.97;2.37;;;24.60;99.90;;;;;;5526835;25;20213;-70
2024/04/09 09:10:25;;;;;;;4.67;2.87;;;24.50;99.90;;;;;;5526618;25;20453;-65
2024/04/09 09:12:56;;;;;;;5.57;2.73;;;24.70;99.90;;;;;;5526902;25;20445;-75
2024/04/09 09:15:26;;;;;;;4.33;2.80;;;24.70;99.90;;;;;;5526489;25;20810;-65
2024/04/09 09:17:52;;;;;;;4.33;2.63;;;24.80;99.90;;;;;;5526370;25;20450;-63
2024/04/09 09:20:20;;;;;;;3.20;2.50;;;24.80;99.90;;;;;;5526525;25;20449;-67
2024/04/09 09:22:48;;;;;;;5.70;2.67;;;24.80;99.90;;;;;;5526412;25;20957;-66
2024/04/09 09:25:18;;;;;;;9.27;3.40;;;24.80;99.90;;;;;;5526403;25;20442;-63
2024/04/09 09:27:44;;;;;;;5.00;2.93;;;24.80;99.90;;;;;;5526326;25;20445;-65
2024/04/09 09:30:13;;;;;;;2.97;2.77;;;25.00;99.90;;;;;;5526123;25;20438;-69
2024/04/09 09:32:44;;;;;;;5.77;2.90;;;25.10;99.90;;;;;;5526361;25;20494;-75
2024/04/09 09:35:17;;;;;;;2.80;2.57;;;25.20;99.90;;;;;;5526757;25;20449;-67
2024/04/09 09:37:49;;;;;;;8.70;2.90;;;25.40;99.90;;;;;;5526136;25;21012;-67
2024/04/09 09:40:18;;;;;;;2.77;2.47;;;25.60;99.90;;;;;;5526275;25;20453;-69
2024/04/09 09:42:44;;;;;;;2.20;2.10;;;25.80;99.90;;;;;;5525911;25;20445;-73
2024/04/09 09:45:12;;;;;;;3.87;2.57;;;25.90;99.90;;;;;;5524989;25;21012;-75
2024/04/09 09:47:39;;;;;;;3.57;2.53;;;26.00;99.90;;;;;;5525958;25;20498;-63
2024/04/09 09:50:11;;;;;;;9.13;3.30;;;26.10;99.90;;;;;;5526065;25;20770;-65
2024/04/09 09:52:40;;;;;;;6.27;2.47;;;26.10;99.90;;;;;;5525893;25;20509;-71
2024/04/09 09:55:12;;;;;;;7.40;2.70;;;26.30;99.90;;;;;;5525851;25;20433;-66
2024/04/09 09:57:41;;;;;;;6.00;2.90;;;26.40;99.90;;;;;;5525867;25;20494;-68
2024/04/09 10:00:14;;;;;;;3.40;3.10;;;26.50;99.90;;;;;;5525693;25;20834;-69
2024/04/09 10:02:42;;;;;;;4.90;2.77;;;26.60;99.90;;;;;;5525833;25;20445;-65
2024/04/09 10:05:14;;;;;;;2.87;2.57;;;26.70;99.90;;;;;;5525770;25;20453;-66
2024/04/09 10:07:40;;;;;;;3.93;2.80;;;26.70;99.90;;;;;;5525854;25;20610;-64
2024/04/09 10:10:09;;;;;;;3.93;2.90;;;26.80;99.90;;;;;;5525511;25;20782;-66
2024/04/09 10:12:37;;;;;;;6.37;2.50;;;26.80;99.90;;;;;;5525435;25;20454;-66
2024/04/09 10:15:07;;;;;;;3.83;2.70;;;26.70;99.90;;;;;;5525322;25;20446;-68
2024/04/09 10:17:49;;;;;;;5.00;2.50;;;26.70;99.90;;;;;;5525456;25;20490;-69
2024/04/09 10:20:23;;;;;;;3.27;2.97;;;26.80;99.90;;;;;;5525300;25;20441;-68
2024/04/09 10:22:51;;;;;;;3.70;3.40;;;26.70;99.90;;;;;;5525170;25;20490;-67
2024/04/09 10:25:20;;;;;;;3.47;2.63;;;26.60;99.90;;;;;;5524721;25;20458;-67
2024/04/09 10:28:00;;;;;;;3.43;2.70;;;26.60;99.90;;;;;;5524759;25;20506;-67
2024/04/09 10:30:29;;;;;;;7.30;2.80;;;26.70;99.90;;;;;;5521277;25;20461;-67
2024/04/09 10:32:55;;;;;;;3.73;2.80;;;26.70;99.90;;;;;;5525347;25;20489;-66
2024/04/09 10:35:24;;;;;;;6.37;2.93;;;26.90;99.90;;;;;;5525186;25;20553;-67
2024/04/09 10:37:51;;;;;;;2.63;2.43;;;27.00;99.90;;;;;;5524869;25;20438;-67
2024/04/09 10:40:19;;;;;;;3.50;2.63;;;27.10;99.90;;;;;;5523432;25;21016;-67
2024/04/09 10:42:45;;;;;;;5.50;3.07;;;27.10;99.90;;;;;;5521214;25;20445;-67
2024/04/09 10:45:16;;;;;;;6.13;2.60;;;27.20;99.90;;;;;;5521422;25;20814;-67
2024/04/09 10:47:44;;;;;;;3.10;2.90;;;27.40;99.90;;;;;;5521876;25;20209;-66
2024/04/09 10:50:13;;;;;;;2.90;2.53;;;27.40;99.90;;;;;;5521533;25;21050;-66
2024/04/09 10:52:39;;;;;;;3.43;2.47;;;27.20;99.90;;;;;;5521324;25;20453;-67
2024/04/09 10:55:10;;;;;;;3.27;2.43;;;27.30;99.90;;;;;;5522077;25;20519;-67
2024/04/09 10:57:36;;;;;;;5.40;2.83;;;27.50;99.90;;;;;;5526818;25;20452;-67
2024/04/09 11:00:10;;;;;;;3.40;2.60;;;27.60;99.90;;;;;;5528543;25;20453;-66
2024/04/09 11:02:40;;;;;;;4.20;2.43;;;27.80;99.90;;;;;;5528307;25;20209;-66
2024/04/09 11:05:09;;;;;;;6.60;2.60;;;27.80;99.90;;;;;;5528547;25;20856;-66
2024/04/09 11:07:36;;;;;;;4.03;2.70;;;27.90;99.90;;;;;;5528211;25;20482;-67
2024/04/09 11:10:06;;;;;;;5.30;2.40;;;27.90;99.90;;;;;;5528319;25;20445;-67
2024/04/09 11:12:32;;;;;;;9.87;2.37;;;28.00;99.90;;;;;;5528695;25;20494;-67
2024/04/09 11:15:00;;;;;;;8.27;3.17;;;27.90;99.90;;;;;;5528121;25;20445;-67
2024/04/09 11:17:26;;;;;;;8.33;2.60;;;28.00;99.90;;;;;;5528303;25;20592;-67
2024/04/09 11:20:09;;;;;;;9.07;2.67;;;28.20;99.90;;;;;;5528365;25;20445;-67
2024/04/09 11:22:36;;;;;;;6.73;2.57;;;28.30;99.90;;;;;;5528281;25;20205;-66
2024/04/09 11:25:05;;;;;;;11.47;3.87;;;28.30;99.90;;;;;;5528173;25;20483;-67
2024/04/09 11:27:30;;;;;;;6.40;3.00;;;28.40;99.90;;;;;;5528239;25;20770;-68
2024/04/09 11:29:59;;;;;;;7.80;3.20;;;28.40;98.20;;;;;;5528581;25;20479;-67
2024/04/09 11:32:25;;;;;;;9.77;3.13;;;28.50;98.10;;;;;;5528008;25;20252;-67
2024/04/09 11:34:54;;;;;;;12.17;3.90;;;28.40;96.90;;;;;;5528050;25;20789;-67
2024/04/09 11:37:22;;;;;;;7.57;2.93;;;28.30;96.60;;;;;;5527926;25;20445;-68
2024/04/09 11:39:50;;;;;;;5.53;2.87;;;28.20;96.70;;;;;;5528190;25;20504;-68
2024/04/09 11:42:16;;;;;;;6.40;3.23;;;28.20;97.20;;;;;;5528053;25;20776;-68
2024/04/09 11:44:44;;;;;;;3.37;2.70;;;28.30;97.40;;;;;;5527904;25;20453;-68
2024/04/09 11:47:10;;;;;;;6.40;2.63;;;28.50;97.30;;;;;;5527506;25;20251;-68
2024/04/09 11:49:38;;;;;;;12.60;2.40;;;28.60;97.30;;;;;;5527619;25;20465;-68
2024/04/09 11:52:04;;;;;;;10.53;3.07;;;28.80;97.00;;;;;;5527674;25;20248;-68
2024/04/09 11:54:34;;;;;;;8.67;3.40;;;28.90;97.70;;;;;;5527734;25;20469;-68
2024/04/09 11:57:00;;;;;;;6.40;3.27;;;28.80;96.50;;;;;;5527496;25;20209;-67
2024/04/09 11:59:28;;;;;;;8.20;2.90;;;28.80;95.40;;;;;;5527519;25;20505;-68
2024/04/09 12:01:54;;;;;;;7.50;3.30;;;28.70;95.30;;;;;;5527660;25;20271;-68
2024/04/09 12:04:22;;;;;;;7.60;3.17;;;28.60;96.20;;;;;;5527797;25;20449;-68
2024/04/09 12:06:48;;;;;;;3.97;3.00;;;28.70;96.10;;;;;;5527727;25;20486;-68
2024/04/09 12:09:16;;;;;;;7.23;4.00;;;28.70;95.90;;;;;;5526809;25;20449;-69
2024/04/09 12:11:44;;;;;;;5.37;2.80;;;28.70;95.90;;;;;;5527531;25;20232;-72
2024/04/09 12:14:12;;;;;;;6.73;2.90;;;28.50;95.60;;;;;;5527457;25;21066;-73
2024/04/09 12:16:42;;;;;;;6.00;3.10;;;28.50;96.00;;;;;;5527184;25;20445;-68
2024/04/09 12:19:10;;;;;;;6.00;3.10;;;28.50;95.30;;;;;;5527277;25;20504;-71
2024/04/09 12:21:36;;;;;;;5.43;3.40;;;28.50;96.20;;;;;;5527135;25;20558;-72
2024/04/09 12:24:05;;;;;;;6.40;2.77;;;28.60;96.60;;;;;;5527113;25;20457;-71
2024/04/09 12:26:31;;;;;;;3.47;2.80;;;28.60;95.90;;;;;;5526879;25;20476;-73
2024/04/09 12:29:02;;;;;;;3.63;3.20;;;28.60;96.10;;;;;;5527133;25;20446;-65
2024/04/09 12:31:27;;;;;;;8.50;3.43;;;28.80;96.60;;;;;;5527014;25;20246;-67
2024/04/09 12:33:56;;;;;;;7.50;3.10;;;28.90;96.50;;;;;;5527366;25;20952;-69
2024/04/09 12:36:22;;;;;;;8.40;4.17;;;28.90;96.00;;;;;;5526707;25;20213;-69
2024/04/09 12:38:50;;;;;;;5.93;3.40;;;28.90;95.80;;;;;;5526898;25;20450;-66
2024/04/09 12:41:16;;;;;;;7.20;2.83;;;29.00;96.00;;;;;;5527209;25;20486;-65
2024/04/09 12:43:44;;;;;;;7.67;3.17;;;28.90;95.40;;;;;;5526840;25;20446;-68
2024/04/09 12:46:12;;;;;;;9.20;3.57;;;28.90;95.20;;;;;;5526824;25;20209;-70
2024/04/09 12:48:40;;;;;;;10.17;3.40;;;28.90;95.00;;;;;;5526959;25;20496;-68
2024/04/09 12:51:08;;;;;;;8.63;3.20;;;28.70;93.90;;;;;;5526702;25;20835;-68